Toms River, NJ (08755)

8:39 AM EDT on November 01, 2014 (GMT -0400)
Toms River/North Dover | Change Station
CLOSE
Current Station
Personal Weather Station
Location: Toms River, NJ
Elevation: 105 ft
Nearby Weather Stations

Elev 105 ft 40.03 °N, 74.22 °W | Updated 13 minutes ago

Rain
Rain
44.8 °F
Feels Like 45 °F
N
1.0
Wind Variable Wind from North
Gusts 9.0 mph

Today
High -- | Low -- °F
--% Chance of Precip.
Yesterday
High -- | Low -- °F
Precip. -- in
7:25 AM 5:54 PM
Waxing Gibbous, 66% visible
Pressure 29.78 in
Visibility 10.0 miles
Clouds Few 1700 ft
Overcast 6000 ft
Windchill 45 °F
Dew Point 44 °F
Humidity 96%
Rainfall 0.39 in
Snow Depth Not available.
UV 0.0 out of 12
Pollen .10 out of 12
Air Quality Not available.
Flu Activity Not available.
METAR KMJX 011235Z AUTO 01008G14KT 10SM FEW017 OVC060 07/06 A2978 RMK AO1

More Conditions Fewer Conditions

Pressure 29.78 in
Visibility 10.0 miles
Clouds Few 1700 ft
Overcast 6000 ft
Windchill 45 °F
Dew Point 44 °F
Humidity 96%
Rainfall 0.39 in
Snow Depth Not available.
UV 0.0 out of 12
Pollen .10 out of 12
Air Quality Not available.
Flu Activity Not available.
METAR KMJX 011235Z AUTO 01008G14KT 10SM FEW017 OVC060 07/06 A2978 RMK AO1

More Conditions Fewer Conditions

Nowcast | as of 6:58 am EDT on November 1, 2014

Light to moderate, with periods of heavier rainfall, will continue to affect the area this morning. Rainfall rates of one tenth to one quarter inch per hour will continue, with heavier rainfall rates up to one half inch possible, which will cause ponding on roadways and low lying areas. Drivers are urged to use caution while driving this morning.

×

10-Day Weather Forecast

Almanac

Astronomy

Nov. 01, 2014 Rise Set
Actual Time
Civil Twilight
Nautical Twilight
Astronomical Twilight
Moon
Length of Visible Light
Length of Day
Tomorrow will be .
, % of the Moon is Illuminated

Today's Extremes

State Highs State Lows

Community

WunderPhotos

Upload Photos

1,766,912 photos uploaded!

WunderBlogs® & News

Nearby

Air Quality

  Air Quality AQ Index Pollutant
Not available.

Snow Depth

Station Depth Elevation

Earthquake Activity

City Distance Mag. Time & Date
Minimum magnitude displayed is 2.5.

Coastal Water Temperatures

Place Temperature

Nearby Weather Stations